sensor_id;sensor_type;location;lat;lon;timestamp;P1;durP1;ratioP1;P2;durP2;ratioP2
62475;SDS011;50739;45.670;11.936;2022-08-25T00:03:53;4.78;;;4.30;;
62475;SDS011;50739;45.670;11.936;2022-08-25T00:08:55;4.70;;;4.20;;
62475;SDS011;50739;45.670;11.936;2022-08-25T00:14:01;4.40;;;3.72;;
62475;SDS011;50739;45.670;11.936;2022-08-25T00:19:05;4.67;;;3.97;;
62475;SDS011;50739;45.670;11.936;2022-08-25T00:24:09;4.70;;;4.20;;
62475;SDS011;50739;45.670;11.936;2022-08-25T00:29:14;4.88;;;4.28;;
62475;SDS011;50739;45.670;11.936;2022-08-25T00:34:18;6.00;;;4.37;;
62475;SDS011;50739;45.670;11.936;2022-08-25T00:39:23;4.65;;;4.18;;
62475;SDS011;50739;45.670;11.936;2022-08-25T00:44:28;6.07;;;4.57;;
62475;SDS011;50739;45.670;11.936;2022-08-25T00:49:32;5.03;;;4.53;;
62475;SDS011;50739;45.670;11.936;2022-08-25T00:54:39;4.68;;;4.03;;
62475;SDS011;50739;45.670;11.936;2022-08-25T00:59:46;4.60;;;3.70;;
62475;SDS011;50739;45.670;11.936;2022-08-25T01:04:49;5.80;;;3.97;;
62475;SDS011;50739;45.670;11.936;2022-08-25T01:09:51;4.70;;;4.20;;
62475;SDS011;50739;45.670;11.936;2022-08-25T01:14:54;8.82;;;5.55;;
62475;SDS011;50739;45.670;11.936;2022-08-25T01:19:57;6.75;;;5.65;;
62475;SDS011;50739;45.670;11.936;2022-08-25T01:25:03;7.13;;;5.80;;
62475;SDS011;50739;45.670;11.936;2022-08-25T01:30:13;6.73;;;5.83;;
62475;SDS011;50739;45.670;11.936;2022-08-25T01:35:15;8.43;;;6.68;;
62475;SDS011;50739;45.670;11.936;2022-08-25T01:40:19;8.75;;;6.82;;
62475;SDS011;50739;45.670;11.936;2022-08-25T01:45:22;8.23;;;7.20;;
62475;SDS011;50739;45.670;11.936;2022-08-25T01:50:24;8.38;;;7.18;;
62475;SDS011;50739;45.670;11.936;2022-08-25T01:55:27;8.07;;;6.85;;
62475;SDS011;50739;45.670;11.936;2022-08-25T02:00:30;7.28;;;6.35;;
62475;SDS011;50739;45.670;11.936;2022-08-25T02:05:32;7.10;;;6.40;;
62475;SDS011;50739;45.670;11.936;2022-08-25T02:10:35;6.90;;;6.20;;
62475;SDS011;50739;45.670;11.936;2022-08-25T02:15:39;6.53;;;5.85;;
62475;SDS011;50739;45.670;11.936;2022-08-25T02:20:42;7.68;;;5.88;;
62475;SDS011;50739;45.670;11.936;2022-08-25T02:25:46;5.80;;;5.03;;
62475;SDS011;50739;45.670;11.936;2022-08-25T02:30:48;5.55;;;5.00;;
62475;SDS011;50739;45.670;11.936;2022-08-25T02:35:51;5.05;;;4.53;;
62475;SDS011;50739;45.670;11.936;2022-08-25T02:40:59;4.65;;;4.22;;
62475;SDS011;50739;45.670;11.936;2022-08-25T02:46:01;5.43;;;4.00;;
62475;SDS011;50739;45.670;11.936;2022-08-25T02:51:03;5.00;;;4.27;;
62475;SDS011;50739;45.670;11.936;2022-08-25T02:56:08;4.93;;;4.03;;
62475;SDS011;50739;45.670;11.936;2022-08-25T03:01:11;4.55;;;4.20;;
62475;SDS011;50739;45.670;11.936;2022-08-25T03:06:14;4.88;;;4.28;;
62475;SDS011;50739;45.670;11.936;2022-08-25T03:11:21;4.85;;;3.92;;
62475;SDS011;50739;45.670;11.936;2022-08-25T03:16:24;4.57;;;4.00;;
62475;SDS011;50739;45.670;11.936;2022-08-25T03:21:27;4.45;;;3.90;;
62475;SDS011;50739;45.670;11.936;2022-08-25T03:26:31;4.07;;;3.57;;
62475;SDS011;50739;45.670;11.936;2022-08-25T03:31:51;4.35;;;3.60;;
62475;SDS011;50739;45.670;11.936;2022-08-25T03:36:55;4.30;;;3.90;;
62475;SDS011;50739;45.670;11.936;2022-08-25T03:42:01;4.55;;;4.00;;
62475;SDS011;50739;45.670;11.936;2022-08-25T03:47:04;5.10;;;4.18;;
62475;SDS011;50739;45.670;11.936;2022-08-25T03:52:06;4.80;;;4.35;;
62475;SDS011;50739;45.670;11.936;2022-08-25T03:57:10;5.95;;;4.60;;
62475;SDS011;50739;45.670;11.936;2022-08-25T04:02:13;4.93;;;4.53;;
62475;SDS011;50739;45.670;11.936;2022-08-25T04:07:15;5.20;;;4.70;;
62475;SDS011;50739;45.670;11.936;2022-08-25T04:12:19;5.15;;;4.65;;
62475;SDS011;50739;45.670;11.936;2022-08-25T04:17:21;6.15;;;4.18;;
62475;SDS011;50739;45.670;11.936;2022-08-25T04:27:32;4.55;;;4.05;;
62475;SDS011;50739;45.670;11.936;2022-08-25T04:32:34;7.05;;;4.15;;
62475;SDS011;50739;45.670;11.936;2022-08-25T04:37:37;4.88;;;4.38;;
62475;SDS011;50739;45.670;11.936;2022-08-25T04:42:41;5.22;;;4.15;;
62475;SDS011;50739;45.670;11.936;2022-08-25T04:47:44;9.83;;;7.17;;
62475;SDS011;50739;45.670;11.936;2022-08-25T04:52:45;5.20;;;4.70;;
62475;SDS011;50739;45.670;11.936;2022-08-25T04:57:49;6.00;;;4.53;;
62475;SDS011;50739;45.670;11.936;2022-08-25T05:02:52;6.70;;;5.57;;
62475;SDS011;50739;45.670;11.936;2022-08-25T05:07:54;5.78;;;5.07;;
62475;SDS011;50739;45.670;11.936;2022-08-25T05:12:57;5.50;;;5.00;;
62475;SDS011;50739;45.670;11.936;2022-08-25T05:18:00;6.53;;;5.10;;
62475;SDS011;50739;45.670;11.936;2022-08-25T05:23:02;6.07;;;5.10;;
62475;SDS011;50739;45.670;11.936;2022-08-25T05:28:05;5.40;;;4.90;;
62475;SDS011;50739;45.670;11.936;2022-08-25T05:33:07;7.17;;;5.03;;
62475;SDS011;50739;45.670;11.936;2022-08-25T05:38:10;8.40;;;5.40;;
62475;SDS011;50739;45.670;11.936;2022-08-25T05:43:13;5.73;;;5.13;;
62475;SDS011;50739;45.670;11.936;2022-08-25T05:48:15;6.73;;;5.00;;
62475;SDS011;50739;45.670;11.936;2022-08-25T05:53:17;6.70;;;4.80;;
62475;SDS011;50739;45.670;11.936;2022-08-25T05:58:20;5.10;;;4.60;;
62475;SDS011;50739;45.670;11.936;2022-08-25T06:03:22;5.57;;;4.27;;
62475;SDS011;50739;45.670;11.936;2022-08-25T06:08:24;6.38;;;4.45;;
62475;SDS011;50739;45.670;11.936;2022-08-25T06:13:32;4.60;;;4.20;;
62475;SDS011;50739;45.670;11.936;2022-08-25T06:18:34;3.95;;;3.55;;
62475;SDS011;50739;45.670;11.936;2022-08-25T06:23:36;6.97;;;3.88;;
62475;SDS011;50739;45.670;11.936;2022-08-25T06:28:40;5.23;;;3.97;;
62475;SDS011;50739;45.670;11.936;2022-08-25T06:33:43;6.13;;;3.88;;
62475;SDS011;50739;45.670;11.936;2022-08-25T06:38:45;6.40;;;4.10;;
62475;SDS011;50739;45.670;11.936;2022-08-25T06:43:49;4.85;;;3.92;;
62475;SDS011;50739;45.670;11.936;2022-08-25T06:48:52;6.50;;;3.90;;
62475;SDS011;50739;45.670;11.936;2022-08-25T06:53:55;5.40;;;4.00;;
62475;SDS011;50739;45.670;11.936;2022-08-25T06:58:59;4.93;;;3.87;;
62475;SDS011;50739;45.670;11.936;2022-08-25T07:04:02;4.83;;;3.70;;
62475;SDS011;50739;45.670;11.936;2022-08-25T07:09:06;4.72;;;3.92;;
62475;SDS011;50739;45.670;11.936;2022-08-25T07:14:11;6.82;;;4.00;;
62475;SDS011;50739;45.670;11.936;2022-08-25T07:19:15;4.27;;;3.33;;
62475;SDS011;50739;45.670;11.936;2022-08-25T07:24:20;4.13;;;3.17;;
62475;SDS011;50739;45.670;11.936;2022-08-25T07:29:24;3.97;;;3.13;;
62475;SDS011;50739;45.670;11.936;2022-08-25T07:34:27;4.22;;;3.10;;
62475;SDS011;50739;45.670;11.936;2022-08-25T07:39:47;3.20;;;2.90;;
62475;SDS011;50739;45.670;11.936;2022-08-25T07:44:50;5.70;;;2.90;;
62475;SDS011;50739;45.670;11.936;2022-08-25T07:49:52;4.63;;;3.15;;
62475;SDS011;50739;45.670;11.936;2022-08-25T07:54:54;5.53;;;3.80;;
62475;SDS011;50739;45.670;11.936;2022-08-25T07:59:58;6.43;;;3.70;;
62475;SDS011;50739;45.670;11.936;2022-08-25T08:05:00;5.13;;;3.10;;
62475;SDS011;50739;45.670;11.936;2022-08-25T08:10:02;3.30;;;3.00;;
62475;SDS011;50739;45.670;11.936;2022-08-25T08:15:07;3.88;;;3.10;;
62475;SDS011;50739;45.670;11.936;2022-08-25T08:20:10;5.30;;;3.00;;
62475;SDS011;50739;45.670;11.936;2022-08-25T08:25:12;5.28;;;3.35;;
62475;SDS011;50739;45.670;11.936;2022-08-25T08:30:16;4.18;;;3.47;;
62475;SDS011;50739;45.670;11.936;2022-08-25T08:35:18;4.75;;;3.08;;
62475;SDS011;50739;45.670;11.936;2022-08-25T08:40:20;5.78;;;3.15;;
62475;SDS011;50739;45.670;11.936;2022-08-25T08:45:28;9.40;;;4.23;;
62475;SDS011;50739;45.670;11.936;2022-08-25T08:50:33;3.90;;;3.20;;
62475;SDS011;50739;45.670;11.936;2022-08-25T08:55:43;4.40;;;3.50;;
62475;SDS011;50739;45.670;11.936;2022-08-25T09:00:50;4.22;;;3.28;;
62475;SDS011;50739;45.670;11.936;2022-08-25T09:05:55;4.72;;;3.53;;
62475;SDS011;50739;45.670;11.936;2022-08-25T09:11:02;4.43;;;3.30;;
62475;SDS011;50739;45.670;11.936;2022-08-25T09:16:11;3.53;;;3.20;;
62475;SDS011;50739;45.670;11.936;2022-08-25T09:21:38;4.57;;;3.07;;
62475;SDS011;50739;45.670;11.936;2022-08-25T09:26:50;5.33;;;3.57;;
62475;SDS011;50739;45.670;11.936;2022-08-25T09:32:02;4.80;;;3.60;;
62475;SDS011;50739;45.670;11.936;2022-08-25T09:37:07;4.90;;;3.05;;
62475;SDS011;50739;45.670;11.936;2022-08-25T09:42:09;3.53;;;2.80;;
62475;SDS011;50739;45.670;11.936;2022-08-25T09:47:14;3.20;;;2.90;;
62475;SDS011;50739;45.670;11.936;2022-08-25T09:52:24;4.00;;;3.30;;
62475;SDS011;50739;45.670;11.936;2022-08-25T09:57:33;4.37;;;3.20;;
62475;SDS011;50739;45.670;11.936;2022-08-25T10:02:38;3.70;;;2.90;;
62475;SDS011;50739;45.670;11.936;2022-08-25T10:07:48;4.65;;;3.10;;
62475;SDS011;50739;45.670;11.936;2022-08-25T10:12:53;4.55;;;3.20;;
62475;SDS011;50739;45.670;11.936;2022-08-25T10:23:21;3.30;;;3.00;;
62475;SDS011;50739;45.670;11.936;2022-08-25T10:28:29;3.10;;;2.80;;
62475;SDS011;50739;45.670;11.936;2022-08-25T10:33:41;4.75;;;3.33;;
62475;SDS011;50739;45.670;11.936;2022-08-25T10:38:53;4.55;;;3.25;;
62475;SDS011;50739;45.670;11.936;2022-08-25T10:44:00;4.82;;;3.08;;
62475;SDS011;50739;45.670;11.936;2022-08-25T10:49:32;6.40;;;3.10;;
62475;SDS011;50739;45.670;11.936;2022-08-25T10:54:44;5.47;;;3.30;;
62475;SDS011;50739;45.670;11.936;2022-08-25T10:59:59;4.05;;;3.30;;
62475;SDS011;50739;45.670;11.936;2022-08-25T11:05:09;3.45;;;3.10;;
62475;SDS011;50739;45.670;11.936;2022-08-25T11:10:16;3.38;;;3.08;;
62475;SDS011;50739;45.670;11.936;2022-08-25T11:15:21;5.43;;;2.80;;
62475;SDS011;50739;45.670;11.936;2022-08-25T11:20:32;5.03;;;3.40;;
62475;SDS011;50739;45.670;11.936;2022-08-25T11:25:40;4.18;;;3.22;;
62475;SDS011;50739;45.670;11.936;2022-08-25T11:30:43;4.10;;;2.90;;
62475;SDS011;50739;45.670;11.936;2022-08-25T11:35:48;3.87;;;3.10;;
62475;SDS011;50739;45.670;11.936;2022-08-25T11:41:01;3.17;;;2.75;;
62475;SDS011;50739;45.670;11.936;2022-08-25T11:46:21;5.00;;;3.03;;
62475;SDS011;50739;45.670;11.936;2022-08-25T11:51:32;3.30;;;3.00;;
62475;SDS011;50739;45.670;11.936;2022-08-25T11:56:41;3.20;;;2.90;;
62475;SDS011;50739;45.670;11.936;2022-08-25T12:07:30;4.90;;;3.25;;
62475;SDS011;50739;45.670;11.936;2022-08-25T12:13:28;3.90;;;3.30;;
62475;SDS011;50739;45.670;11.936;2022-08-25T12:18:43;3.83;;;3.20;;
62475;SDS011;50739;45.670;11.936;2022-08-25T12:29:13;3.40;;;2.90;;
62475;SDS011;50739;45.670;11.936;2022-08-25T12:34:25;3.90;;;2.80;;
62475;SDS011;50739;45.670;11.936;2022-08-25T12:39:41;2.85;;;2.63;;
62475;SDS011;50739;45.670;11.936;2022-08-25T12:44:45;3.67;;;3.00;;
62475;SDS011;50739;45.670;11.936;2022-08-25T12:49:48;3.07;;;2.57;;
62475;SDS011;50739;45.670;11.936;2022-08-25T12:54:52;2.83;;;2.63;;
62475;SDS011;50739;45.670;11.936;2022-08-25T12:59:58;4.53;;;2.80;;
62475;SDS011;50739;45.670;11.936;2022-08-25T13:05:04;3.10;;;2.88;;
62475;SDS011;50739;45.670;11.936;2022-08-25T13:15:43;4.53;;;2.88;;
62475;SDS011;50739;45.670;11.936;2022-08-25T13:20:47;4.07;;;2.70;;
62475;SDS011;50739;45.670;11.936;2022-08-25T13:25:54;3.17;;;2.87;;
62475;SDS011;50739;45.670;11.936;2022-08-25T13:31:02;3.55;;;2.60;;
62475;SDS011;50739;45.670;11.936;2022-08-25T13:36:06;2.80;;;2.60;;
62475;SDS011;50739;45.670;11.936;2022-08-25T13:41:36;3.95;;;2.53;;
62475;SDS011;50739;45.670;11.936;2022-08-25T13:46:37;3.60;;;2.47;;
62475;SDS011;50739;45.670;11.936;2022-08-25T13:51:49;4.45;;;2.75;;
62475;SDS011;50739;45.670;11.936;2022-08-25T13:56:54;2.75;;;2.40;;
62475;SDS011;50739;45.670;11.936;2022-08-25T14:02:06;2.63;;;2.43;;
62475;SDS011;50739;45.670;11.936;2022-08-25T14:12:29;3.35;;;2.60;;
62475;SDS011;50739;45.670;11.936;2022-08-25T14:17:34;2.92;;;2.50;;
62475;SDS011;50739;45.670;11.936;2022-08-25T14:22:38;3.85;;;2.60;;
62475;SDS011;50739;45.670;11.936;2022-08-25T14:27:42;3.53;;;2.50;;
62475;SDS011;50739;45.670;11.936;2022-08-25T14:32:44;3.53;;;2.65;;
62475;SDS011;50739;45.670;11.936;2022-08-25T14:37:46;2.92;;;2.50;;
62475;SDS011;50739;45.670;11.936;2022-08-25T14:42:51;3.95;;;2.42;;
62475;SDS011;50739;45.670;11.936;2022-08-25T14:47:52;3.55;;;2.55;;
62475;SDS011;50739;45.670;11.936;2022-08-25T14:52:56;3.83;;;2.80;;
62475;SDS011;50739;45.670;11.936;2022-08-25T14:58:00;2.85;;;2.65;;
62475;SDS011;50739;45.670;11.936;2022-08-25T15:03:02;3.40;;;2.80;;
62475;SDS011;50739;45.670;11.936;2022-08-25T15:08:04;3.00;;;2.80;;
62475;SDS011;50739;45.670;11.936;2022-08-25T15:13:24;3.30;;;2.78;;
62475;SDS011;50739;45.670;11.936;2022-08-25T15:18:27;4.83;;;2.60;;
62475;SDS011;50739;45.670;11.936;2022-08-25T15:23:28;2.80;;;2.60;;
62475;SDS011;50739;45.670;11.936;2022-08-25T15:28:32;3.40;;;2.80;;
62475;SDS011;50739;45.670;11.936;2022-08-25T15:33:34;3.70;;;2.90;;
62475;SDS011;50739;45.670;11.936;2022-08-25T15:38:36;4.60;;;2.70;;
62475;SDS011;50739;45.670;11.936;2022-08-25T15:43:39;3.50;;;2.55;;
62475;SDS011;50739;45.670;11.936;2022-08-25T15:48:42;4.43;;;2.60;;
62475;SDS011;50739;45.670;11.936;2022-08-25T15:53:44;4.38;;;2.70;;
62475;SDS011;50739;45.670;11.936;2022-08-25T15:58:47;3.10;;;2.63;;
62475;SDS011;50739;45.670;11.936;2022-08-25T16:03:49;4.80;;;3.10;;
62475;SDS011;50739;45.670;11.936;2022-08-25T16:08:51;3.65;;;2.55;;
62475;SDS011;50739;45.670;11.936;2022-08-25T16:13:55;3.70;;;2.73;;
62475;SDS011;50739;45.670;11.936;2022-08-25T16:18:58;3.08;;;2.67;;
62475;SDS011;50739;45.670;11.936;2022-08-25T16:24:01;4.25;;;2.53;;
62475;SDS011;50739;45.670;11.936;2022-08-25T16:29:06;4.10;;;2.78;;
62475;SDS011;50739;45.670;11.936;2022-08-25T16:34:08;3.85;;;3.55;;
62475;SDS011;50739;45.670;11.936;2022-08-25T16:39:11;3.33;;;2.87;;
62475;SDS011;50739;45.670;11.936;2022-08-25T16:44:16;6.50;;;4.72;;
62475;SDS011;50739;45.670;11.936;2022-08-25T16:49:19;4.05;;;2.70;;
62475;SDS011;50739;45.670;11.936;2022-08-25T16:54:21;4.00;;;2.60;;
62475;SDS011;50739;45.670;11.936;2022-08-25T16:59:42;5.37;;;3.80;;
62475;SDS011;50739;45.670;11.936;2022-08-25T17:04:44;5.93;;;3.42;;
62475;SDS011;50739;45.670;11.936;2022-08-25T17:09:46;5.90;;;3.15;;
62475;SDS011;50739;45.670;11.936;2022-08-25T17:14:50;4.65;;;3.10;;
62475;SDS011;50739;45.670;11.936;2022-08-25T17:19:51;3.87;;;3.20;;
62475;SDS011;50739;45.670;11.936;2022-08-25T17:24:54;4.50;;;2.88;;
62475;SDS011;50739;45.670;11.936;2022-08-25T17:29:58;6.67;;;4.93;;
62475;SDS011;50739;45.670;11.936;2022-08-25T17:35:01;11.55;;;9.75;;
62475;SDS011;50739;45.670;11.936;2022-08-25T17:40:08;16.50;;;13.40;;
62475;SDS011;50739;45.670;11.936;2022-08-25T17:45:13;7.72;;;5.53;;
62475;SDS011;50739;45.670;11.936;2022-08-25T17:50:15;8.40;;;6.88;;
62475;SDS011;50739;45.670;11.936;2022-08-25T17:55:17;6.93;;;6.30;;
62475;SDS011;50739;45.670;11.936;2022-08-25T18:00:24;16.63;;;14.37;;
62475;SDS011;50739;45.670;11.936;2022-08-25T18:05:26;11.40;;;7.93;;
62475;SDS011;50739;45.670;11.936;2022-08-25T18:10:28;19.25;;;14.73;;
62475;SDS011;50739;45.670;11.936;2022-08-25T18:15:32;9.93;;;8.53;;
62475;SDS011;50739;45.670;11.936;2022-08-25T18:20:34;16.50;;;11.60;;
62475;SDS011;50739;45.670;11.936;2022-08-25T18:25:37;9.55;;;7.00;;
62475;SDS011;50739;45.670;11.936;2022-08-25T18:30:40;7.72;;;5.70;;
62475;SDS011;50739;45.670;11.936;2022-08-25T18:35:43;7.90;;;5.00;;
62475;SDS011;50739;45.670;11.936;2022-08-25T18:40:45;9.57;;;6.70;;
62475;SDS011;50739;45.670;11.936;2022-08-25T18:45:48;10.77;;;7.30;;
62475;SDS011;50739;45.670;11.936;2022-08-25T18:50:51;7.50;;;4.73;;
62475;SDS011;50739;45.670;11.936;2022-08-25T18:55:54;7.13;;;4.00;;
62475;SDS011;50739;45.670;11.936;2022-08-25T19:00:58;6.05;;;3.70;;
62475;SDS011;50739;45.670;11.936;2022-08-25T19:06:03;6.63;;;4.47;;
62475;SDS011;50739;45.670;11.936;2022-08-25T19:11:05;7.47;;;4.80;;
62475;SDS011;50739;45.670;11.936;2022-08-25T19:16:10;8.47;;;4.90;;
62475;SDS011;50739;45.670;11.936;2022-08-25T19:21:15;10.05;;;5.75;;
62475;SDS011;50739;45.670;11.936;2022-08-25T19:26:20;9.95;;;6.60;;
62475;SDS011;50739;45.670;11.936;2022-08-25T19:31:23;13.05;;;6.70;;
62475;SDS011;50739;45.670;11.936;2022-08-25T19:36:28;10.63;;;6.80;;
62475;SDS011;50739;45.670;11.936;2022-08-25T19:41:31;10.67;;;7.63;;
62475;SDS011;50739;45.670;11.936;2022-08-25T19:46:35;12.33;;;6.80;;
62475;SDS011;50739;45.670;11.936;2022-08-25T19:51:41;9.10;;;6.88;;
62475;SDS011;50739;45.670;11.936;2022-08-25T19:56:44;9.65;;;6.47;;
62475;SDS011;50739;45.670;11.936;2022-08-25T20:01:48;12.95;;;6.30;;
62475;SDS011;50739;45.670;11.936;2022-08-25T20:06:49;9.32;;;6.78;;
62475;SDS011;50739;45.670;11.936;2022-08-25T20:11:52;9.10;;;6.20;;
62475;SDS011;50739;45.670;11.936;2022-08-25T20:16:55;10.93;;;6.90;;
62475;SDS011;50739;45.670;11.936;2022-08-25T20:21:57;9.30;;;7.13;;
62475;SDS011;50739;45.670;11.936;2022-08-25T20:27:01;7.25;;;5.95;;
62475;SDS011;50739;45.670;11.936;2022-08-25T20:32:05;8.32;;;5.85;;
62475;SDS011;50739;45.670;11.936;2022-08-25T20:37:07;8.55;;;5.22;;
62475;SDS011;50739;45.670;11.936;2022-08-25T20:42:09;5.93;;;4.63;;
62475;SDS011;50739;45.670;11.936;2022-08-25T20:47:13;6.15;;;4.93;;
62475;SDS011;50739;45.670;11.936;2022-08-25T20:52:19;6.18;;;4.45;;
62475;SDS011;50739;45.670;11.936;2022-08-25T20:57:21;6.53;;;4.30;;
62475;SDS011;50739;45.670;11.936;2022-08-25T21:02:27;5.53;;;4.68;;
62475;SDS011;50739;45.670;11.936;2022-08-25T21:07:29;5.05;;;4.50;;
62475;SDS011;50739;45.670;11.936;2022-08-25T21:12:31;6.90;;;4.97;;
62475;SDS011;50739;45.670;11.936;2022-08-25T21:17:41;5.00;;;4.50;;
62475;SDS011;50739;45.670;11.936;2022-08-25T21:22:42;5.73;;;5.10;;
62475;SDS011;50739;45.670;11.936;2022-08-25T21:27:44;5.47;;;4.97;;
62475;SDS011;50739;45.670;11.936;2022-08-25T21:32:48;5.82;;;4.30;;
62475;SDS011;50739;45.670;11.936;2022-08-25T21:37:52;5.75;;;4.20;;
62475;SDS011;50739;45.670;11.936;2022-08-25T21:42:54;4.72;;;4.30;;
62475;SDS011;50739;45.670;11.936;2022-08-25T21:47:58;5.57;;;3.80;;
62475;SDS011;50739;45.670;11.936;2022-08-25T21:52:59;4.17;;;3.77;;
62475;SDS011;50739;45.670;11.936;2022-08-25T21:58:01;3.83;;;3.50;;
62475;SDS011;50739;45.670;11.936;2022-08-25T22:03:06;4.50;;;4.03;;
62475;SDS011;50739;45.670;11.936;2022-08-25T22:08:08;5.57;;;3.70;;
62475;SDS011;50739;45.670;11.936;2022-08-25T22:13:10;4.97;;;3.57;;
62475;SDS011;50739;45.670;11.936;2022-08-25T22:18:20;6.07;;;3.53;;
62475;SDS011;50739;45.670;11.936;2022-08-25T22:23:24;4.70;;;3.50;;
62475;SDS011;50739;45.670;11.936;2022-08-25T22:28:26;4.20;;;3.38;;
62475;SDS011;50739;45.670;11.936;2022-08-25T22:33:30;4.40;;;3.30;;
62475;SDS011;50739;45.670;11.936;2022-08-25T22:38:32;8.27;;;4.00;;
62475;SDS011;50739;45.670;11.936;2022-08-25T22:43:34;3.60;;;3.30;;
62475;SDS011;50739;45.670;11.936;2022-08-25T22:48:37;4.40;;;3.60;;
62475;SDS011;50739;45.670;11.936;2022-08-25T22:53:43;6.47;;;3.70;;
62475;SDS011;50739;45.670;11.936;2022-08-25T22:58:45;4.60;;;3.50;;
62475;SDS011;50739;45.670;11.936;2022-08-25T23:03:49;6.53;;;3.93;;
62475;SDS011;50739;45.670;11.936;2022-08-25T23:08:51;4.47;;;4.05;;
62475;SDS011;50739;45.670;11.936;2022-08-25T23:13:56;6.47;;;4.10;;
62475;SDS011;50739;45.670;11.936;2022-08-25T23:19:02;5.33;;;4.30;;
62475;SDS011;50739;45.670;11.936;2022-08-25T23:24:05;4.78;;;3.90;;
62475;SDS011;50739;45.670;11.936;2022-08-25T23:29:07;4.82;;;4.03;;
62475;SDS011;50739;45.670;11.936;2022-08-25T23:34:13;5.50;;;4.10;;
62475;SDS011;50739;45.670;11.936;2022-08-25T23:39:16;5.10;;;4.25;;
62475;SDS011;50739;45.670;11.936;2022-08-25T23:44:19;4.75;;;4.35;;
62475;SDS011;50739;45.670;11.936;2022-08-25T23:49:24;7.20;;;4.10;;
62475;SDS011;50739;45.670;11.936;2022-08-25T23:54:29;4.85;;;4.00;;
62475;SDS011;50739;45.670;11.936;2022-08-25T23:59:33;3.63;;;3.33;;
